Time;durP1;ratioP1;P1;durP2;ratioP2;P2;SDS_P1;SDS_P2;PMS_P1;PMS_P2;Temp;Humidity;BMP_temperature;BMP_pressure;BME280_temperature;BME280_humidity;BME280_pressure;Samples;Min_cycle;Max_cycle;Signal;HPM_P1;HPM_P2
2021/05/12 00:00:12;;;;;;;11.73;9.83;;;15.60;93.60;;;;;;5084517;28;20278;-72
2021/05/12 00:02:40;;;;;;;12.40;9.70;;;15.60;93.60;;;;;;5083523;28;20206;-72
2021/05/12 00:05:09;;;;;;;11.83;10.23;;;15.70;93.60;;;;;;5084648;28;20217;-72
2021/05/12 00:07:38;;;;;;;11.53;9.17;;;15.60;93.60;;;;;;5082017;28;20653;-72
2021/05/12 00:10:08;;;;;;;12.47;8.70;;;15.60;93.60;;;;;;5086191;28;20213;-72
2021/05/12 00:12:35;;;;;;;14.17;10.10;;;15.60;93.60;;;;;;5081816;28;20216;-72
2021/05/12 00:15:05;;;;;;;13.23;9.93;;;15.60;93.50;;;;;;5078604;28;20229;-72
2021/05/12 00:17:34;;;;;;;11.97;9.43;;;15.60;93.50;;;;;;5078868;28;20229;-72
2021/05/12 00:20:02;;;;;;;11.07;9.03;;;15.60;93.60;;;;;;5084760;28;20228;-72
2021/05/12 00:22:43;;;;;;;11.87;9.30;;;15.60;93.60;;;;;;5082477;28;20233;-72
2021/05/12 00:25:11;;;;;;;14.10;9.30;;;15.60;93.70;;;;;;5083688;28;20220;-72
2021/05/12 00:27:39;;;;;;;12.83;8.80;;;15.60;93.70;;;;;;5083824;28;20532;-72
2021/05/12 00:30:09;;;;;;;15.37;9.53;;;15.60;93.70;;;;;;5084578;28;20213;-72
2021/05/12 00:32:37;;;;;;;14.13;9.53;;;15.60;93.70;;;;;;5083009;28;20244;-72
2021/05/12 00:35:05;;;;;;;11.77;8.67;;;15.60;93.70;;;;;;5084987;28;20219;-72
2021/05/12 00:37:32;;;;;;;13.43;9.20;;;15.50;93.70;;;;;;5082793;28;20222;-72
2021/05/12 00:40:17;;;;;;;25.43;9.47;;;15.60;93.70;;;;;;5079817;28;20664;-72
2021/05/12 00:42:46;;;;;;;11.77;8.43;;;15.60;93.70;;;;;;5080587;28;20213;-72
2021/05/12 00:45:16;;;;;;;14.47;8.73;;;15.50;93.70;;;;;;5083380;28;20220;-72
2021/05/12 00:47:50;;;;;;;9.67;8.33;;;15.60;93.70;;;;;;5083152;28;20237;-71
2021/05/12 00:50:20;;;;;;;11.20;8.77;;;15.60;93.70;;;;;;5082811;28;20241;-72
2021/05/12 00:52:48;;;;;;;11.47;9.30;;;15.60;93.70;;;;;;5084856;28;20663;-72
2021/05/12 00:55:16;;;;;;;10.53;8.70;;;15.50;93.70;;;;;;5079123;28;20210;-72
2021/05/12 00:57:44;;;;;;;12.07;8.30;;;15.50;93.70;;;;;;5081890;28;20206;-72
2021/05/12 01:00:14;;;;;;;16.17;9.20;;;15.50;93.70;;;;;;5084362;28;20286;-72
2021/05/12 01:02:41;;;;;;;11.10;8.10;;;15.50;93.70;;;;;;5083690;28;20220;-71
2021/05/12 01:05:35;;;;;;;10.03;7.90;;;15.50;93.70;;;;;;5081495;28;20198;-71
2021/05/12 01:08:05;;;;;;;15.10;8.70;;;15.40;93.70;;;;;;5078481;28;20213;-71
2021/05/12 01:10:33;;;;;;;12.90;8.93;;;15.40;93.70;;;;;;5085208;28;20209;-71
2021/05/12 01:13:01;;;;;;;12.10;8.97;;;15.40;93.80;;;;;;5072742;28;20205;-72
2021/05/12 01:15:29;;;;;;;12.33;9.27;;;15.40;93.80;;;;;;5077265;28;20221;-72
2021/05/12 01:18:09;;;;;;;14.63;9.83;;;15.40;93.80;;;;;;5077746;28;20554;-72
2021/05/12 01:20:59;;;;;;;10.77;9.27;;;15.40;93.80;;;;;;5073735;28;20581;-72
2021/05/12 01:23:32;;;;;;;11.43;9.90;;;15.40;93.80;;;;;;5078839;28;20217;-71
2021/05/12 01:26:02;;;;;;;13.00;10.57;;;15.40;93.80;;;;;;5083734;28;20216;-71
2021/05/12 01:28:32;;;;;;;14.30;10.77;;;15.30;93.80;;;;;;5082350;28;20209;-71
2021/05/12 01:31:10;;;;;;;13.93;10.40;;;15.40;93.90;;;;;;5083975;28;20221;-71
2021/05/12 01:33:39;;;;;;;14.77;11.80;;;15.30;93.80;;;;;;5080325;28;20581;-71
2021/05/12 01:36:07;;;;;;;15.90;12.30;;;15.30;93.90;;;;;;5076989;28;20275;-71
2021/05/12 01:38:36;;;;;;;17.50;13.07;;;15.30;93.90;;;;;;5072561;28;20210;-71
2021/05/12 01:41:05;;;;;;;16.83;13.47;;;15.30;93.80;;;;;;5073272;28;20234;-71
2021/05/12 01:43:33;;;;;;;25.73;13.67;;;15.30;93.80;;;;;;5080870;28;20220;-72
2021/05/12 01:46:02;;;;;;;21.27;14.47;;;15.30;93.80;;;;;;5073952;28;20205;-72
2021/05/12 01:48:31;;;;;;;20.77;15.80;;;15.30;93.80;;;;;;5081144;28;20201;-72
2021/05/12 01:50:58;;;;;;;18.37;14.50;;;15.20;93.80;;;;;;5085516;28;20573;-72
2021/05/12 01:53:26;;;;;;;25.33;18.07;;;15.20;93.80;;;;;;5084526;28;20215;-72
2021/05/12 01:55:54;;;;;;;20.77;16.47;;;15.20;93.80;;;;;;5082477;28;20209;-72
2021/05/12 01:58:22;;;;;;;20.50;16.63;;;15.20;93.80;;;;;;5079176;28;20274;-72
2021/05/12 02:00:51;;;;;;;25.83;18.30;;;15.10;93.70;;;;;;5083146;28;20297;-72
2021/05/12 02:03:20;;;;;;;22.73;18.57;;;15.10;93.80;;;;;;5084916;28;20211;-72
2021/05/12 02:05:49;;;;;;;25.30;17.97;;;15.10;93.80;;;;;;5082469;28;20626;-72
2021/05/12 02:08:20;;;;;;;26.60;20.57;;;15.10;93.80;;;;;;5082779;28;20227;-72
2021/05/12 02:10:52;;;;;;;33.27;21.57;;;15.10;93.80;;;;;;5083043;28;20221;-72
2021/05/12 02:13:20;;;;;;;25.53;19.50;;;15.10;93.90;;;;;;5079784;28;20201;-72
2021/05/12 02:15:47;;;;;;;28.10;20.47;;;15.00;93.80;;;;;;5080067;28;20842;-72
2021/05/12 02:18:14;;;;;;;31.63;19.57;;;15.00;93.90;;;;;;5083444;28;20266;-72
2021/05/12 02:20:42;;;;;;;29.73;21.00;;;15.00;93.90;;;;;;5081452;28;20692;-72
2021/05/12 02:23:12;;;;;;;30.57;21.83;;;15.00;93.90;;;;;;5082238;28;20205;-72
2021/05/12 02:25:40;;;;;;;30.70;23.27;;;15.10;93.90;;;;;;5080472;28;20210;-72
2021/05/12 02:28:08;;;;;;;40.07;23.33;;;15.10;93.90;;;;;;5083794;28;20277;-72
2021/05/12 02:30:36;;;;;;;29.70;22.90;;;15.10;93.90;;;;;;5082125;28;20278;-72
2021/05/12 02:33:05;;;;;;;31.03;23.73;;;15.10;94.20;;;;;;5079264;28;20213;-72
2021/05/12 02:35:34;;;;;;;32.90;24.07;;;15.10;93.90;;;;;;5076103;28;20217;-72
2021/05/12 02:38:02;;;;;;;30.77;23.17;;;15.00;93.90;;;;;;5076168;28;20214;-72
2021/05/12 02:40:29;;;;;;;35.50;24.50;;;15.00;93.90;;;;;;5083695;28;20228;-72
2021/05/12 02:42:59;;;;;;;34.87;24.40;;;15.00;93.90;;;;;;5077108;28;20445;-72
2021/05/12 02:45:27;;;;;;;30.10;21.83;;;15.00;93.90;;;;;;5082521;28;20656;-72
2021/05/12 02:47:58;;;;;;;31.43;21.57;;;15.00;93.90;;;;;;5079837;28;20274;-72
2021/05/12 02:50:34;;;;;;;28.00;21.43;;;14.90;93.80;;;;;;5082151;28;20600;-72
2021/05/12 02:53:02;;;;;;;35.93;24.20;;;14.90;93.80;;;;;;5082017;28;20251;-72
2021/05/12 02:55:31;;;;;;;36.37;23.97;;;14.90;93.80;;;;;;5083560;28;20225;-72
2021/05/12 02:57:59;;;;;;;32.63;22.50;;;14.90;93.90;;;;;;5081301;28;20213;-72
2021/05/12 03:00:28;;;;;;;34.07;23.53;;;14.90;93.90;;;;;;5082395;28;20245;-72
2021/05/12 03:02:56;;;;;;;36.60;23.50;;;14.80;93.90;;;;;;5084500;28;20217;-72
2021/05/12 03:05:24;;;;;;;36.33;24.73;;;14.90;93.90;;;;;;5079950;28;20271;-72
2021/05/12 03:07:52;;;;;;;36.13;25.00;;;14.80;93.90;;;;;;5082897;28;20292;-72
2021/05/12 03:10:21;;;;;;;33.97;24.20;;;14.80;93.90;;;;;;5080262;28;20217;-72
2021/05/12 03:12:49;;;;;;;36.50;23.97;;;14.80;93.90;;;;;;5079968;28;20236;-72
2021/05/12 03:15:23;;;;;;;32.37;24.03;;;14.80;93.90;;;;;;5083041;28;20778;-72
2021/05/12 03:17:52;;;;;;;31.03;24.53;;;14.80;93.90;;;;;;5059448;28;20218;-72
2021/05/12 03:20:21;;;;;;;36.53;24.33;;;14.80;93.90;;;;;;5083090;28;20244;-72
2021/05/12 03:22:49;;;;;;;40.70;25.40;;;14.80;93.90;;;;;;5081026;28;20535;-72
2021/05/12 03:25:17;;;;;;;35.17;24.20;;;14.80;93.90;;;;;;5082363;28;20262;-72
2021/05/12 03:27:44;;;;;;;34.27;24.70;;;14.70;93.90;;;;;;5079656;28;20224;-72
2021/05/12 03:30:15;;;;;;;41.57;24.90;;;14.70;93.90;;;;;;5082378;28;20218;-72
2021/05/12 03:32:42;;;;;;;34.97;22.67;;;14.70;93.90;;;;;;5083709;28;20728;-72
2021/05/12 03:35:11;;;;;;;37.00;25.00;;;14.70;93.90;;;;;;5081116;28;20256;-72
2021/05/12 03:37:38;;;;;;;37.27;23.53;;;14.60;93.90;;;;;;5085437;28;20221;-72
2021/05/12 03:40:07;;;;;;;38.43;25.27;;;14.60;93.90;;;;;;5084720;28;20217;-72
2021/05/12 03:42:34;;;;;;;34.13;24.07;;;14.50;93.90;;;;;;5082114;28;20225;-72
2021/05/12 03:45:04;;;;;;;34.03;26.00;;;14.50;93.90;;;;;;5083945;28;20214;-72
2021/05/12 03:47:31;;;;;;;35.43;23.73;;;14.50;93.90;;;;;;5085474;28;20210;-72
2021/05/12 03:49:58;;;;;;;37.43;25.80;;;14.50;93.90;;;;;;5085188;28;20205;-72
2021/05/12 03:52:25;;;;;;;41.33;25.37;;;14.50;93.90;;;;;;5085185;28;20217;-72
2021/05/12 03:54:52;;;;;;;34.43;24.50;;;14.50;93.90;;;;;;5087639;28;20295;-72
2021/05/12 03:57:20;;;;;;;37.70;26.57;;;14.50;93.90;;;;;;5085215;28;20221;-72
2021/05/12 03:59:47;;;;;;;35.73;25.57;;;14.50;93.90;;;;;;5083881;28;20217;-72
2021/05/12 04:02:14;;;;;;;36.83;24.73;;;14.50;93.90;;;;;;5084579;28;20280;-72
2021/05/12 04:04:41;;;;;;;44.60;24.53;;;14.40;93.90;;;;;;5082668;28;20574;-72
2021/05/12 04:07:09;;;;;;;31.10;23.60;;;14.40;93.90;;;;;;5084179;28;20255;-72
2021/05/12 04:09:36;;;;;;;35.60;25.00;;;14.40;93.90;;;;;;5083480;28;20222;-72
2021/05/12 04:12:04;;;;;;;31.23;22.23;;;14.40;93.90;;;;;;5081987;28;20224;-72
2021/05/12 04:14:31;;;;;;;30.87;21.70;;;14.40;93.90;;;;;;5084088;28;20274;-72
2021/05/12 04:16:58;;;;;;;33.20;21.57;;;14.40;93.90;;;;;;5084769;28;20258;-72
2021/05/12 04:19:25;;;;;;;29.77;20.90;;;14.40;93.80;;;;;;5084522;28;20241;-72
2021/05/12 04:21:53;;;;;;;28.47;20.17;;;14.50;93.80;;;;;;5083844;28;20307;-72
2021/05/12 04:24:21;;;;;;;48.43;20.23;;;14.50;93.80;;;;;;5084914;28;20209;-72
2021/05/12 04:26:48;;;;;;;30.20;20.83;;;14.50;93.80;;;;;;5082866;28;20213;-72
2021/05/12 04:29:16;;;;;;;27.37;19.60;;;14.50;93.70;;;;;;5084465;28;20218;-72
2021/05/12 04:31:43;;;;;;;26.30;21.40;;;14.50;93.70;;;;;;5084024;28;20217;-72
2021/05/12 04:34:10;;;;;;;27.30;21.27;;;14.50;93.70;;;;;;5086799;28;20213;-72
2021/05/12 04:36:39;;;;;;;30.27;20.87;;;14.60;93.60;;;;;;5084371;28;20222;-72
2021/05/12 04:39:07;;;;;;;32.00;19.57;;;14.60;93.60;;;;;;5083948;28;20217;-72
2021/05/12 04:41:34;;;;;;;24.50;18.70;;;14.60;93.60;;;;;;5081914;28;20265;-72
2021/05/12 04:44:03;;;;;;;25.77;18.83;;;14.60;93.50;;;;;;5084637;28;20300;-72
2021/05/12 04:46:30;;;;;;;23.37;17.50;;;14.60;93.50;;;;;;5083268;28;20255;-72
2021/05/12 04:48:58;;;;;;;21.67;16.57;;;14.60;93.40;;;;;;5083792;28;20210;-72
2021/05/12 04:51:29;;;;;;;20.33;16.83;;;14.60;93.40;;;;;;5082228;28;20485;-72
2021/05/12 04:53:56;;;;;;;23.17;16.40;;;14.60;93.40;;;;;;5084803;28;20228;-72
2021/05/12 04:56:23;;;;;;;20.03;15.23;;;14.60;93.30;;;;;;5084870;28;20600;-72
2021/05/12 04:58:52;;;;;;;15.23;13.53;;;14.70;93.30;;;;;;5082071;28;20214;-72
2021/05/12 05:01:19;;;;;;;17.17;13.37;;;14.70;93.20;;;;;;5083822;28;20268;-72
2021/05/12 05:03:46;;;;;;;14.33;12.13;;;14.70;93.20;;;;;;5082127;28;20229;-72
2021/05/12 05:06:13;;;;;;;17.07;12.77;;;14.80;93.20;;;;;;5083863;28;20255;-72
2021/05/12 05:08:40;;;;;;;12.23;10.40;;;14.80;93.10;;;;;;5087625;28;20283;-72
2021/05/12 05:11:10;;;;;;;11.43;10.13;;;14.80;93.00;;;;;;5084455;28;20205;-72
2021/05/12 05:13:38;;;;;;;15.57;9.60;;;14.80;92.90;;;;;;5081315;28;20214;-72
2021/05/12 05:16:06;;;;;;;10.40;8.50;;;14.90;92.90;;;;;;5085836;28;20299;-72
2021/05/12 05:18:34;;;;;;;9.70;8.70;;;14.90;92.80;;;;;;5084947;28;20213;-72
2021/05/12 05:21:04;;;;;;;15.00;9.17;;;15.00;92.70;;;;;;5081387;28;20245;-72
2021/05/12 05:23:35;;;;;;;12.53;7.10;;;15.00;92.60;;;;;;5077663;28;20214;-72
2021/05/12 05:26:03;;;;;;;7.97;7.13;;;15.00;92.60;;;;;;5077314;28;20304;-72
2021/05/12 05:28:31;;;;;;;6.77;6.07;;;15.10;92.50;;;;;;5084191;28;20628;-72
2021/05/12 05:30:58;;;;;;;7.40;5.90;;;15.10;92.40;;;;;;5085194;28;20636;-72
2021/05/12 05:33:25;;;;;;;7.67;6.40;;;15.10;92.30;;;;;;5081395;28;20610;-72
2021/05/12 05:35:53;;;;;;;7.53;6.10;;;15.10;92.20;;;;;;5079697;28;20206;-71
2021/05/12 05:38:20;;;;;;;7.23;6.53;;;15.20;92.20;;;;;;5084899;28;20423;-71
2021/05/12 05:40:47;;;;;;;6.40;5.80;;;15.20;92.20;;;;;;5080841;28;20221;-71
2021/05/12 05:43:15;;;;;;;9.93;6.53;;;15.30;92.10;;;;;;5079574;28;20311;-71
2021/05/12 05:45:43;;;;;;;8.50;6.47;;;15.30;92.00;;;;;;5083191;28;20221;-71
2021/05/12 05:48:11;;;;;;;7.27;6.40;;;15.30;91.90;;;;;;5081927;28;20249;-71
2021/05/12 05:50:38;;;;;;;7.87;7.07;;;15.40;91.90;;;;;;5083408;28;20286;-71
2021/05/12 05:53:05;;;;;;;9.43;7.37;;;15.40;91.80;;;;;;5082351;28;20259;-71
2021/05/12 05:55:32;;;;;;;10.43;8.23;;;15.40;91.80;;;;;;5082239;28;20554;-71
2021/05/12 05:57:59;;;;;;;9.23;7.93;;;15.40;91.80;;;;;;5080502;28;20213;-71
2021/05/12 06:00:26;;;;;;;10.47;8.53;;;15.50;91.70;;;;;;5083497;28;20208;-71
2021/05/12 06:02:54;;;;;;;10.43;8.20;;;15.50;91.70;;;;;;5081274;28;20252;-71
2021/05/12 06:05:21;;;;;;;10.30;9.30;;;15.50;91.70;;;;;;5081240;28;20211;-71
2021/05/12 06:07:48;;;;;;;10.50;9.43;;;15.50;91.70;;;;;;5083827;28;20694;-71
2021/05/12 06:10:16;;;;;;;10.37;9.03;;;15.50;91.70;;;;;;5080655;28;20254;-71
2021/05/12 06:12:45;;;;;;;11.17;8.93;;;15.50;91.70;;;;;;5079014;28;20217;-71
2021/05/12 06:15:18;;;;;;;11.87;9.60;;;15.50;91.70;;;;;;5083272;28;20229;-71
2021/05/12 06:17:51;;;;;;;9.90;9.00;;;15.50;91.70;;;;;;5078957;28;20213;-71
2021/05/12 06:20:18;;;;;;;12.23;10.07;;;15.50;91.70;;;;;;5082416;28;20243;-71
2021/05/12 06:22:46;;;;;;;11.00;9.33;;;15.50;91.70;;;;;;5083104;28;20289;-71
2021/05/12 06:25:13;;;;;;;11.53;10.33;;;15.40;91.70;;;;;;5079648;28;20681;-71
2021/05/12 06:27:42;;;;;;;17.10;12.20;;;15.40;91.70;;;;;;5080514;28;20212;-71
2021/05/12 06:30:10;;;;;;;11.83;10.47;;;15.40;91.70;;;;;;5079092;28;20212;-71
2021/05/12 06:32:37;;;;;;;13.53;11.23;;;15.30;91.70;;;;;;5082943;28;20398;-71
2021/05/12 06:35:05;;;;;;;13.97;11.77;;;15.30;91.80;;;;;;5082683;28;20217;-71
2021/05/12 06:37:32;;;;;;;12.60;10.60;;;15.30;91.80;;;;;;5080268;28;20330;-71
2021/05/12 06:39:59;;;;;;;13.47;11.70;;;15.30;91.80;;;;;;5082505;28;20217;-71
2021/05/12 06:42:26;;;;;;;12.27;10.80;;;15.30;91.80;;;;;;5080547;28;20233;-71
2021/05/12 06:44:53;;;;;;;14.37;10.93;;;15.30;91.80;;;;;;5083035;28;20209;-71
2021/05/12 06:47:20;;;;;;;11.97;10.07;;;15.40;91.90;;;;;;5083786;28;20210;-71
2021/05/12 06:49:47;;;;;;;10.20;9.13;;;15.40;91.80;;;;;;5081325;28;20220;-71
2021/05/12 06:52:14;;;;;;;10.07;9.00;;;15.50;91.70;;;;;;5081518;28;20222;-71
2021/05/12 06:54:42;;;;;;;10.83;9.33;;;15.50;91.60;;;;;;5082910;28;20644;-71
2021/05/12 06:57:09;;;;;;;10.73;9.30;;;15.60;91.60;;;;;;5083769;28;20208;-71
2021/05/12 06:59:36;;;;;;;10.27;9.17;;;15.80;91.60;;;;;;5081828;28;20752;-71
2021/05/12 07:02:03;;;;;;;9.93;8.93;;;15.90;91.50;;;;;;5079739;28;20283;-71
2021/05/12 07:04:30;;;;;;;11.03;9.00;;;16.20;91.40;;;;;;5082159;28;20210;-71
2021/05/12 07:06:57;;;;;;;8.80;7.30;;;16.70;91.20;;;;;;5081383;28;20258;-71
2021/05/12 07:09:25;;;;;;;9.00;7.70;;;17.20;90.60;;;;;;5081707;28;20224;-71
2021/05/12 07:11:52;;;;;;;9.03;8.17;;;17.40;89.90;;;;;;5081065;28;20551;-72
2021/05/12 07:14:20;;;;;;;11.43;7.67;;;17.60;88.80;;;;;;5087363;28;20521;-72
2021/05/12 07:16:48;;;;;;;9.00;7.80;;;17.60;87.90;;;;;;5087470;28;20304;-71
2021/05/12 07:19:18;;;;;;;12.27;8.40;;;17.60;87.40;;;;;;5085593;28;20548;-72
2021/05/12 07:21:46;;;;;;;8.20;7.50;;;17.60;87.20;;;;;;5083322;28;20249;-72
2021/05/12 07:24:14;;;;;;;7.90;7.13;;;17.50;87.00;;;;;;5086369;28;20228;-72
2021/05/12 07:26:41;;;;;;;9.53;8.17;;;17.50;87.20;;;;;;5084122;28;20799;-72
2021/05/12 07:29:08;;;;;;;7.77;7.00;;;17.50;87.10;;;;;;5085919;28;20225;-72
2021/05/12 07:31:36;;;;;;;7.90;7.13;;;17.50;86.70;;;;;;5086960;28;20633;-72
2021/05/12 07:34:06;;;;;;;8.17;7.43;;;17.50;86.40;;;;;;5084271;28;20669;-71
2021/05/12 07:36:34;;;;;;;7.40;6.67;;;17.50;86.40;;;;;;5086185;28;20296;-72
2021/05/12 07:39:01;;;;;;;10.63;7.23;;;17.50;86.20;;;;;;5083770;28;20213;-72
2021/05/12 07:41:28;;;;;;;9.23;6.90;;;17.60;86.30;;;;;;5082876;28;20709;-72
2021/05/12 07:43:55;;;;;;;8.10;7.00;;;17.70;86.40;;;;;;5086613;28;20676;-72
2021/05/12 07:46:26;;;;;;;13.47;7.20;;;17.80;86.10;;;;;;5083156;28;20600;-71
2021/05/12 07:48:53;;;;;;;7.67;6.77;;;18.00;85.80;;;;;;5083156;28;20292;-71
2021/05/12 07:51:21;;;;;;;7.03;6.33;;;18.10;85.00;;;;;;5086024;28;20217;-71
2021/05/12 07:53:50;;;;;;;6.73;6.13;;;18.30;85.70;;;;;;5083993;28;20293;-71
2021/05/12 07:56:17;;;;;;;5.90;5.30;;;18.60;84.40;;;;;;5083543;28;20209;-71
2021/05/12 07:58:44;;;;;;;6.63;5.77;;;18.80;83.10;;;;;;5082715;28;20454;-71
2021/05/12 08:01:25;;;;;;;6.30;5.47;;;18.90;82.10;;;;;;5083104;28;20246;-71
2021/05/12 08:03:54;;;;;;;8.03;5.77;;;19.00;81.50;;;;;;5082835;28;20244;-72
2021/05/12 08:06:21;;;;;;;5.53;4.83;;;19.00;81.50;;;;;;5084435;28;20247;-71
2021/05/12 08:08:49;;;;;;;5.63;5.10;;;19.10;82.00;;;;;;5084778;28;20213;-71
2021/05/12 08:11:16;;;;;;;5.63;5.10;;;19.20;81.40;;;;;;5083562;28;20206;-71
2021/05/12 08:13:43;;;;;;;5.47;4.37;;;19.30;80.70;;;;;;5082177;28;20324;-72
2021/05/12 08:16:10;;;;;;;8.37;4.50;;;19.50;80.00;;;;;;5084167;28;20624;-72
2021/05/12 08:18:38;;;;;;;5.00;4.13;;;19.70;79.40;;;;;;5084810;28;20219;-71
2021/05/12 08:21:06;;;;;;;4.77;4.27;;;20.00;78.60;;;;;;5082605;28;20700;-72
2021/05/12 08:23:34;;;;;;;5.30;4.83;;;20.40;77.10;;;;;;5084019;28;20240;-72
2021/05/12 08:26:01;;;;;;;4.80;4.40;;;20.80;76.80;;;;;;5083203;28;20205;-72
2021/05/12 08:28:29;;;;;;;7.57;4.80;;;21.20;75.10;;;;;;5083933;28;20236;-72
2021/05/12 08:30:57;;;;;;;11.03;4.50;;;21.60;74.30;;;;;;5084660;28;20217;-71
2021/05/12 08:33:24;;;;;;;7.00;5.10;;;21.70;72.60;;;;;;5083044;28;20213;-71
2021/05/12 08:35:53;;;;;;;5.40;5.00;;;21.70;71.90;;;;;;5083013;28;20646;-71
2021/05/12 08:38:24;;;;;;;5.43;4.93;;;21.70;72.00;;;;;;5083232;28;20213;-72
2021/05/12 08:40:54;;;;;;;5.27;4.70;;;21.80;71.80;;;;;;5085032;28;20217;-72
2021/05/12 08:43:23;;;;;;;5.33;4.83;;;21.80;71.50;;;;;;5081312;28;20256;-71
2021/05/12 08:45:51;;;;;;;6.20;4.63;;;21.70;71.60;;;;;;5082271;28;20217;-73
2021/05/12 08:48:19;;;;;;;7.33;4.53;;;21.50;71.60;;;;;;5086389;28;20217;-72
2021/05/12 08:50:46;;;;;;;4.27;3.60;;;21.40;71.90;;;;;;5085036;28;20205;-72
2021/05/12 08:53:15;;;;;;;8.20;4.60;;;21.20;72.00;;;;;;5085493;28;20570;-73
2021/05/12 08:55:42;;;;;;;4.40;3.60;;;21.00;72.60;;;;;;5081291;28;20209;-71
2021/05/12 08:58:09;;;;;;;4.07;3.73;;;20.80;73.20;;;;;;5081954;28;20275;-70
2021/05/12 09:00:39;;;;;;;4.40;4.00;;;20.70;73.10;;;;;;5085368;28;20221;-71
2021/05/12 09:03:06;;;;;;;4.07;3.60;;;20.60;72.70;;;;;;5082768;28;20252;-72
2021/05/12 09:05:34;;;;;;;3.70;3.40;;;20.40;72.90;;;;;;5081732;28;20237;-72
2021/05/12 09:08:01;;;;;;;5.70;3.63;;;20.20;72.70;;;;;;5077774;28;20625;-72
2021/05/12 09:10:28;;;;;;;6.30;3.17;;;20.10;73.70;;;;;;5078087;28;20285;-71
2021/05/12 09:12:57;;;;;;;3.03;2.60;;;20.00;73.80;;;;;;5078360;28;20278;-71
2021/05/12 09:15:27;;;;;;;2.77;2.53;;;19.90;73.80;;;;;;5074870;28;20274;-73
2021/05/12 09:17:56;;;;;;;3.20;2.80;;;19.90;74.20;;;;;;5082488;28;20244;-72
2021/05/12 09:23:25;;;;;;;4.00;3.20;;;20.00;73.10;;;;;;5079647;28;20244;-72
2021/05/12 09:25:55;;;;;;;3.57;3.27;;;19.90;72.40;;;;;;5083551;28;20213;-71
2021/05/12 09:28:26;;;;;;;5.50;3.37;;;19.90;73.10;;;;;;5083159;28;20212;-71
2021/05/12 09:31:24;;;;;;;4.63;3.37;;;20.00;73.10;;;;;;5085106;28;20255;-71
2021/05/12 09:34:00;;;;;;;3.77;3.40;;;20.20;73.10;;;;;;5067560;28;20208;-71
2021/05/12 09:36:28;;;;;;;3.50;3.20;;;20.40;73.20;;;;;;5081596;28;20220;-71
2021/05/12 09:38:56;;;;;;;3.20;2.90;;;20.70;73.70;;;;;;5083705;28;20601;-72
2021/05/12 09:41:34;;;;;;;4.83;3.73;;;21.10;72.50;;;;;;5081380;28;20787;-72
2021/05/12 09:44:04;;;;;;;4.20;3.80;;;21.60;71.70;;;;;;5082454;28;20242;-71
2021/05/12 09:46:40;;;;;;;6.13;3.77;;;22.00;70.40;;;;;;5082797;28;20220;-71
2021/05/12 09:49:12;;;;;;;4.53;4.23;;;22.30;70.50;;;;;;5081497;28;20675;-71
2021/05/12 09:51:45;;;;;;;4.57;4.17;;;22.30;68.70;;;;;;5081013;28;20543;-71
2021/05/12 09:54:14;;;;;;;4.37;4.07;;;22.30;69.00;;;;;;5081641;28;20563;-71
2021/05/12 09:56:50;;;;;;;5.03;3.77;;;22.20;69.10;;;;;;5077256;28;20210;-71
2021/05/12 09:59:22;;;;;;;4.77;4.33;;;22.20;68.40;;;;;;5082266;28;20223;-71
2021/05/12 10:01:57;;;;;;;4.17;3.87;;;22.20;68.10;;;;;;5081899;28;20539;-71
2021/05/12 10:04:32;;;;;;;4.07;3.77;;;22.20;67.00;;;;;;5080744;28;20221;-71
2021/05/12 10:07:01;;;;;;;4.20;3.90;;;22.10;67.70;;;;;;5073202;28;20209;-70
2021/05/12 10:09:29;;;;;;;5.47;3.93;;;22.10;68.00;;;;;;5080695;28;20244;-71
2021/05/12 10:12:06;;;;;;;3.97;3.67;;;22.20;67.50;;;;;;5080254;28;20216;-71
2021/05/12 10:14:35;;;;;;;6.47;3.97;;;22.20;68.00;;;;;;5082552;28;20560;-71
2021/05/12 10:17:07;;;;;;;4.13;3.73;;;22.40;66.90;;;;;;5082179;28;20641;-71
2021/05/12 10:19:35;;;;;;;5.30;4.80;;;22.50;66.00;;;;;;5082633;28;20247;-71
2021/05/12 10:22:04;;;;;;;4.97;3.73;;;22.50;64.70;;;;;;5082769;28;20241;-71
2021/05/12 10:24:35;;;;;;;4.17;3.77;;;22.40;64.30;;;;;;5081907;28;20209;-71
2021/05/12 10:27:11;;;;;;;5.00;4.60;;;22.50;64.60;;;;;;5083677;28;20655;-71
2021/05/12 10:29:42;;;;;;;5.03;4.63;;;22.60;65.50;;;;;;5077577;28;20217;-72
2021/05/12 10:32:32;;;;;;;4.37;4.07;;;22.70;65.30;;;;;;5083625;28;20255;-71
2021/05/12 10:35:08;;;;;;;4.83;4.43;;;22.80;66.60;;;;;;5077654;28;20214;-71
2021/05/12 10:37:46;;;;;;;5.40;5.00;;;23.00;67.10;;;;;;5081898;28;20253;-71
2021/05/12 10:40:21;;;;;;;6.47;4.73;;;23.50;65.20;;;;;;5079390;28;20725;-71
2021/05/12 10:43:14;;;;;;;5.57;5.10;;;23.90;63.60;;;;;;5074188;28;20224;-71
2021/05/12 10:45:45;;;;;;;4.77;4.37;;;24.10;62.80;;;;;;5082611;28;20217;-71
2021/05/12 10:48:28;;;;;;;5.10;4.70;;;24.10;62.60;;;;;;5080177;28;20227;-71
2021/05/12 10:50:56;;;;;;;5.17;4.77;;;24.20;63.30;;;;;;5090996;28;20217;-71
2021/05/12 10:53:29;;;;;;;6.23;5.60;;;24.40;63.00;;;;;;5090526;28;20232;-71
2021/05/12 10:55:56;;;;;;;5.63;5.10;;;24.50;61.70;;;;;;5086669;28;20217;-71
2021/05/12 10:58:26;;;;;;;6.67;5.47;;;24.20;60.30;;;;;;5087957;28;20244;-71
2021/05/12 11:01:01;;;;;;;6.27;5.63;;;23.80;59.90;;;;;;5086943;28;20209;-71
2021/05/12 11:03:50;;;;;;;5.30;4.90;;;23.40;61.80;;;;;;5083031;28;20232;-71
2021/05/12 11:06:44;;;;;;;5.30;4.80;;;23.30;62.30;;;;;;5090668;28;20235;-71
2021/05/12 11:09:14;;;;;;;6.20;5.70;;;23.40;62.00;;;;;;5088058;28;20260;-71
2021/05/12 11:11:45;;;;;;;6.27;5.80;;;23.50;61.30;;;;;;5084678;28;20217;-71
2021/05/12 11:14:32;;;;;;;5.37;4.97;;;23.40;62.30;;;;;;5091153;28;20236;-71
2021/05/12 11:17:04;;;;;;;5.50;5.10;;;23.40;62.10;;;;;;5086227;28;20692;-72
2021/05/12 11:19:45;;;;;;;5.87;5.33;;;23.30;62.70;;;;;;5087476;28;20232;-71
2021/05/12 11:22:29;;;;;;;4.00;3.70;;;23.20;62.20;;;;;;5077342;28;20324;-71
2021/05/12 11:25:29;;;;;;;4.70;4.07;;;23.10;62.00;;;;;;5088291;28;20645;-71
2021/05/12 11:33:32;;;;;;;4.87;4.03;;;23.00;62.70;;;;;;5084565;28;20536;-72
2021/05/12 11:36:08;;;;;;;4.77;4.37;;;23.00;60.50;;;;;;5067188;28;20609;-72
2021/05/12 11:38:36;;;;;;;4.30;4.00;;;23.00;59.20;;;;;;5085972;28;20212;-72
2021/05/12 11:41:08;;;;;;;4.97;4.57;;;23.10;60.50;;;;;;5085337;28;20229;-71
2021/05/12 11:43:42;;;;;;;5.80;5.30;;;23.30;59.10;;;;;;5083392;28;20233;-71
2021/05/12 11:46:19;;;;;;;6.33;5.53;;;23.30;60.50;;;;;;5079713;28;20231;-72
2021/05/12 11:48:46;;;;;;;5.90;5.30;;;23.30;60.70;;;;;;5083244;28;20290;-72
2021/05/12 11:51:27;;;;;;;4.67;4.27;;;23.40;61.60;;;;;;5088116;28;20219;-72
2021/05/12 11:53:55;;;;;;;5.13;4.70;;;23.50;60.80;;;;;;5092277;28;20221;-72
2021/05/12 11:56:23;;;;;;;4.43;4.13;;;23.60;58.00;;;;;;5085286;28;20217;-72
2021/05/12 11:58:57;;;;;;;4.87;3.20;;;23.70;59.50;;;;;;5084135;28;20286;-72
2021/05/12 12:01:25;;;;;;;14.20;3.80;;;23.80;59.10;;;;;;5080090;28;20237;-72
2021/05/12 12:06:45;;;;;;;5.27;3.40;;;23.80;58.10;;;;;;5079482;28;20645;-72
2021/05/12 12:09:13;;;;;;;4.63;3.73;;;23.80;59.00;;;;;;5083911;28;20549;-72
2021/05/12 12:11:41;;;;;;;3.13;2.90;;;23.80;59.50;;;;;;5087957;28;20387;-72
2021/05/12 12:14:10;;;;;;;3.77;3.47;;;23.80;58.40;;;;;;5080122;28;20214;-72
2021/05/12 12:16:40;;;;;;;4.27;3.50;;;23.60;58.50;;;;;;5086713;28;20547;-72
2021/05/12 12:19:12;;;;;;;2.20;2.00;;;23.50;59.10;;;;;;5079943;28;20594;-72
2021/05/12 12:21:46;;;;;;;1.80;1.70;;;23.50;57.90;;;;;;5085784;28;20324;-72
2021/05/12 12:24:20;;;;;;;1.90;1.80;;;23.40;54.20;;;;;;5087848;28;20237;-72
2021/05/12 12:26:55;;;;;;;2.07;1.93;;;23.20;54.40;;;;;;5086470;28;20209;-71
2021/05/12 12:29:27;;;;;;;2.33;2.13;;;23.10;55.90;;;;;;5080004;28;20741;-71
2021/05/12 12:32:06;;;;;;;1.97;1.87;;;23.30;55.70;;;;;;5084812;28;20625;-71
2021/05/12 12:34:44;;;;;;;3.30;1.90;;;23.40;53.70;;;;;;5081468;28;20217;-71
2021/05/12 12:37:20;;;;;;;1.80;1.60;;;23.50;54.00;;;;;;5082392;28;20236;-71
2021/05/12 12:42:34;;;;;;;2.13;1.70;;;23.90;54.20;;;;;;5083071;28;20252;-71
2021/05/12 12:45:28;;;;;;;1.27;1.17;;;24.20;52.50;;;;;;5085204;28;20223;-72
2021/05/12 12:48:04;;;;;;;3.77;1.70;;;24.40;52.30;;;;;;5076233;28;20205;-72
2021/05/12 12:50:33;;;;;;;2.23;1.80;;;24.60;52.60;;;;;;5077307;28;20863;-72
2021/05/12 12:53:04;;;;;;;2.67;1.30;;;24.70;52.70;;;;;;5079786;28;20639;-72
2021/05/12 12:55:36;;;;;;;2.90;1.10;;;24.80;52.60;;;;;;5085266;28;20286;-72
2021/05/12 12:58:05;;;;;;;1.00;1.00;;;24.90;52.70;;;;;;5083491;28;20227;-72
2021/05/12 13:00:42;;;;;;;2.30;0.90;;;24.90;50.70;;;;;;5083344;28;20231;-73
2021/05/12 13:03:23;;;;;;;1.30;1.20;;;24.80;50.50;;;;;;5084028;28;20246;-72
2021/05/12 13:05:53;;;;;;;1.40;1.30;;;24.50;51.10;;;;;;5081005;28;20208;-72